sensor_id;sensor_type;location;lat;lon;timestamp;pressure;altitude;pressure_sealevel;temperature;humidity
16544;BME280;8384;47.996;7.786;2022-10-31T00:00:24;99223.53;;;11.08;87.62
16544;BME280;8384;47.996;7.786;2022-10-31T00:02:49;99222.94;;;11.06;87.96
16544;BME280;8384;47.996;7.786;2022-10-31T00:05:14;99236.06;;;11.04;89.01
16544;BME280;8384;47.996;7.786;2022-10-31T00:07:40;99192.13;;;10.71;89.24
16544;BME280;8384;47.996;7.786;2022-10-31T00:10:05;99217.81;;;10.70;90.06
16544;BME280;8384;47.996;7.786;2022-10-31T00:12:31;99190.63;;;10.63;89.67
16544;BME280;8384;47.996;7.786;2022-10-31T00:14:56;99222.81;;;10.78;88.90
16544;BME280;8384;47.996;7.786;2022-10-31T00:17:21;99228.63;;;10.82;88.31
16544;BME280;8384;47.996;7.786;2022-10-31T00:19:47;99213.50;;;10.97;87.16
16544;BME280;8384;47.996;7.786;2022-10-31T00:22:12;99236.59;;;11.23;84.69
16544;BME280;8384;47.996;7.786;2022-10-31T00:24:37;99227.59;;;11.28;83.88
16544;BME280;8384;47.996;7.786;2022-10-31T00:27:03;99207.16;;;11.35;81.98
16544;BME280;8384;47.996;7.786;2022-10-31T00:29:28;99215.81;;;11.49;80.96
16544;BME280;8384;47.996;7.786;2022-10-31T00:31:53;99206.09;;;11.36;80.78
16544;BME280;8384;47.996;7.786;2022-10-31T00:34:18;99209.97;;;11.40;80.99
16544;BME280;8384;47.996;7.786;2022-10-31T00:36:44;99227.72;;;11.60;80.06
16544;BME280;8384;47.996;7.786;2022-10-31T00:39:09;99182.66;;;11.46;79.24
16544;BME280;8384;47.996;7.786;2022-10-31T00:41:34;99213.38;;;11.53;79.96
16544;BME280;8384;47.996;7.786;2022-10-31T00:44:00;99230.56;;;11.70;81.23
16544;BME280;8384;47.996;7.786;2022-10-31T00:46:25;99212.13;;;11.38;83.07
16544;BME280;8384;47.996;7.786;2022-10-31T00:48:50;99216.22;;;11.14;85.22
16544;BME280;8384;47.996;7.786;2022-10-31T00:51:15;99202.50;;;10.91;86.81
16544;BME280;8384;47.996;7.786;2022-10-31T00:53:41;99192.94;;;10.72;89.10
16544;BME280;8384;47.996;7.786;2022-10-31T00:56:06;99229.31;;;10.72;90.38
16544;BME280;8384;47.996;7.786;2022-10-31T00:58:31;99233.34;;;10.70;90.25
16544;BME280;8384;47.996;7.786;2022-10-31T01:00:57;99221.25;;;10.65;90.75
16544;BME280;8384;47.996;7.786;2022-10-31T01:03:28;99218.44;;;10.60;91.03
16544;BME280;8384;47.996;7.786;2022-10-31T01:06:03;99207.88;;;10.64;90.05
16544;BME280;8384;47.996;7.786;2022-10-31T01:08:29;99212.66;;;10.57;90.55
16544;BME280;8384;47.996;7.786;2022-10-31T01:11:05;99203.97;;;10.43;91.67
16544;BME280;8384;47.996;7.786;2022-10-31T01:13:30;99221.94;;;10.39;93.52
16544;BME280;8384;47.996;7.786;2022-10-31T01:15:57;99207.59;;;10.31;93.93
16544;BME280;8384;47.996;7.786;2022-10-31T01:18:23;99211.31;;;10.76;91.80
16544;BME280;8384;47.996;7.786;2022-10-31T01:21:00;99216.06;;;10.64;92.82
16544;BME280;8384;47.996;7.786;2022-10-31T01:23:26;99192.28;;;10.64;92.48
16544;BME280;8384;47.996;7.786;2022-10-31T01:26:04;99198.50;;;10.60;93.02
16544;BME280;8384;47.996;7.786;2022-10-31T01:28:30;99209.81;;;10.34;94.71
16544;BME280;8384;47.996;7.786;2022-10-31T01:30:55;99218.25;;;10.16;96.19
16544;BME280;8384;47.996;7.786;2022-10-31T01:33:20;99201.84;;;9.99;97.17
16544;BME280;8384;47.996;7.786;2022-10-31T01:35:45;99214.91;;;9.97;98.03
16544;BME280;8384;47.996;7.786;2022-10-31T01:38:11;99210.19;;;9.92;99.67
16544;BME280;8384;47.996;7.786;2022-10-31T01:40:36;99214.38;;;9.83;100.00
16544;BME280;8384;47.996;7.786;2022-10-31T01:43:01;99209.00;;;9.71;100.00
16544;BME280;8384;47.996;7.786;2022-10-31T01:45:27;99206.75;;;9.68;100.00
16544;BME280;8384;47.996;7.786;2022-10-31T01:47:52;99195.81;;;9.68;100.00
16544;BME280;8384;47.996;7.786;2022-10-31T01:50:31;99193.50;;;9.59;100.00
16544;BME280;8384;47.996;7.786;2022-10-31T01:52:58;99190.03;;;9.64;100.00
16544;BME280;8384;47.996;7.786;2022-10-31T01:55:30;99174.25;;;9.66;98.86
16544;BME280;8384;47.996;7.786;2022-10-31T01:58:09;99193.81;;;9.92;97.59
16544;BME280;8384;47.996;7.786;2022-10-31T02:00:37;99193.47;;;9.71;98.22
16544;BME280;8384;47.996;7.786;2022-10-31T02:03:03;99192.38;;;9.72;99.09
16544;BME280;8384;47.996;7.786;2022-10-31T02:05:29;99196.19;;;9.71;99.58
16544;BME280;8384;47.996;7.786;2022-10-31T02:07:59;99186.06;;;9.72;99.54
16544;BME280;8384;47.996;7.786;2022-10-31T02:10:27;99188.47;;;9.68;100.00
16544;BME280;8384;47.996;7.786;2022-10-31T02:12:54;99190.94;;;9.70;100.00
16544;BME280;8384;47.996;7.786;2022-10-31T02:15:20;99140.28;;;9.45;99.45
16544;BME280;8384;47.996;7.786;2022-10-31T02:17:45;99161.63;;;9.48;100.00
16544;BME280;8384;47.996;7.786;2022-10-31T02:20:21;99196.91;;;9.38;100.00
16544;BME280;8384;47.996;7.786;2022-10-31T02:25:21;99183.28;;;9.38;100.00
16544;BME280;8384;47.996;7.786;2022-10-31T02:28:25;99182.69;;;9.36;100.00
16544;BME280;8384;47.996;7.786;2022-10-31T02:33:50;99178.97;;;9.42;100.00
16544;BME280;8384;47.996;7.786;2022-10-31T02:36:26;99157.34;;;9.23;100.00
16544;BME280;8384;47.996;7.786;2022-10-31T02:39:11;99179.91;;;9.48;100.00
16544;BME280;8384;47.996;7.786;2022-10-31T02:41:48;99175.41;;;9.41;100.00
16544;BME280;8384;47.996;7.786;2022-10-31T02:47:05;99158.09;;;9.07;100.00
16544;BME280;8384;47.996;7.786;2022-10-31T02:49:36;99154.16;;;9.14;100.00
16544;BME280;8384;47.996;7.786;2022-10-31T02:52:14;99151.44;;;9.14;100.00
16544;BME280;8384;47.996;7.786;2022-10-31T02:54:39;99141.84;;;9.12;100.00
16544;BME280;8384;47.996;7.786;2022-10-31T02:57:07;99168.19;;;9.35;100.00
16544;BME280;8384;47.996;7.786;2022-10-31T02:59:35;99153.25;;;9.09;100.00
16544;BME280;8384;47.996;7.786;2022-10-31T03:07:46;99169.59;;;9.09;100.00
16544;BME280;8384;47.996;7.786;2022-10-31T03:10:35;99159.75;;;9.08;100.00
16544;BME280;8384;47.996;7.786;2022-10-31T03:13:10;99147.91;;;9.02;100.00
16544;BME280;8384;47.996;7.786;2022-10-31T03:15:43;99162.63;;;9.30;100.00
16544;BME280;8384;47.996;7.786;2022-10-31T03:18:17;99144.75;;;9.22;100.00
16544;BME280;8384;47.996;7.786;2022-10-31T03:20:51;99165.47;;;9.35;100.00
16544;BME280;8384;47.996;7.786;2022-10-31T03:23:18;99155.53;;;9.29;100.00
16544;BME280;8384;47.996;7.786;2022-10-31T03:25:46;99153.63;;;9.29;100.00
16544;BME280;8384;47.996;7.786;2022-10-31T03:28:15;99143.09;;;9.21;100.00
16544;BME280;8384;47.996;7.786;2022-10-31T03:30:43;99160.84;;;9.36;100.00
16544;BME280;8384;47.996;7.786;2022-10-31T03:33:14;99151.78;;;9.18;100.00
16544;BME280;8384;47.996;7.786;2022-10-31T03:35:44;99150.97;;;9.18;100.00
16544;BME280;8384;47.996;7.786;2022-10-31T03:38:11;99129.50;;;9.09;100.00
16544;BME280;8384;47.996;7.786;2022-10-31T03:40:40;99136.47;;;9.17;100.00
16544;BME280;8384;47.996;7.786;2022-10-31T03:43:10;99118.19;;;8.89;100.00
16544;BME280;8384;47.996;7.786;2022-10-31T03:45:44;99147.34;;;8.88;100.00
16544;BME280;8384;47.996;7.786;2022-10-31T03:48:10;99157.91;;;8.84;100.00
16544;BME280;8384;47.996;7.786;2022-10-31T03:53:19;99161.53;;;9.02;100.00
16544;BME280;8384;47.996;7.786;2022-10-31T03:55:57;99152.88;;;9.05;100.00
16544;BME280;8384;47.996;7.786;2022-10-31T03:58:29;99152.75;;;9.12;100.00
16544;BME280;8384;47.996;7.786;2022-10-31T04:00:58;99156.59;;;8.99;100.00
16544;BME280;8384;47.996;7.786;2022-10-31T04:03:27;99144.50;;;8.95;100.00
16544;BME280;8384;47.996;7.786;2022-10-31T04:05:56;99146.84;;;8.91;100.00
16544;BME280;8384;47.996;7.786;2022-10-31T04:08:27;99117.50;;;8.81;100.00
16544;BME280;8384;47.996;7.786;2022-10-31T04:10:54;99147.56;;;8.98;100.00
16544;BME280;8384;47.996;7.786;2022-10-31T04:13:24;99116.28;;;8.89;100.00
16544;BME280;8384;47.996;7.786;2022-10-31T04:15:52;99115.47;;;8.89;100.00
16544;BME280;8384;47.996;7.786;2022-10-31T04:18:19;99146.00;;;9.03;100.00
16544;BME280;8384;47.996;7.786;2022-10-31T04:20:46;99138.06;;;9.01;100.00
16544;BME280;8384;47.996;7.786;2022-10-31T04:23:22;99120.06;;;8.88;100.00
16544;BME280;8384;47.996;7.786;2022-10-31T04:25:47;99124.41;;;8.72;100.00
16544;BME280;8384;47.996;7.786;2022-10-31T04:28:13;99137.38;;;8.94;100.00
16544;BME280;8384;47.996;7.786;2022-10-31T04:30:38;99122.44;;;8.96;100.00
16544;BME280;8384;47.996;7.786;2022-10-31T04:33:03;99135.16;;;8.79;100.00
16544;BME280;8384;47.996;7.786;2022-10-31T04:35:28;99139.47;;;8.63;100.00
16544;BME280;8384;47.996;7.786;2022-10-31T04:37:54;99154.00;;;8.80;100.00
16544;BME280;8384;47.996;7.786;2022-10-31T04:40:19;99139.69;;;8.73;100.00
16544;BME280;8384;47.996;7.786;2022-10-31T04:42:44;99146.53;;;8.76;100.00
16544;BME280;8384;47.996;7.786;2022-10-31T04:45:10;99100.09;;;8.47;100.00
16544;BME280;8384;47.996;7.786;2022-10-31T04:47:35;99136.13;;;8.73;100.00
16544;BME280;8384;47.996;7.786;2022-10-31T04:50:01;99153.66;;;8.77;100.00
16544;BME280;8384;47.996;7.786;2022-10-31T04:52:26;99126.66;;;8.51;100.00
16544;BME280;8384;47.996;7.786;2022-10-31T04:54:52;99154.25;;;8.67;100.00
16544;BME280;8384;47.996;7.786;2022-10-31T04:57:17;99141.72;;;8.66;100.00
16544;BME280;8384;47.996;7.786;2022-10-31T04:59:42;99151.16;;;8.63;100.00
16544;BME280;8384;47.996;7.786;2022-10-31T05:02:07;99131.41;;;8.44;100.00
16544;BME280;8384;47.996;7.786;2022-10-31T05:04:33;99132.38;;;8.50;100.00
16544;BME280;8384;47.996;7.786;2022-10-31T05:06:58;99156.16;;;8.66;100.00
16544;BME280;8384;47.996;7.786;2022-10-31T05:09:23;99139.69;;;8.61;100.00
16544;BME280;8384;47.996;7.786;2022-10-31T05:11:48;99118.13;;;8.48;100.00
16544;BME280;8384;47.996;7.786;2022-10-31T05:14:14;99130.56;;;8.55;100.00
16544;BME280;8384;47.996;7.786;2022-10-31T05:16:39;99122.25;;;8.38;100.00
16544;BME280;8384;47.996;7.786;2022-10-31T05:19:04;99141.00;;;8.59;100.00
16544;BME280;8384;47.996;7.786;2022-10-31T05:21:29;99110.88;;;8.41;100.00
16544;BME280;8384;47.996;7.786;2022-10-31T05:23:55;99135.53;;;8.59;100.00
16544;BME280;8384;47.996;7.786;2022-10-31T05:26:21;99120.63;;;8.49;100.00
16544;BME280;8384;47.996;7.786;2022-10-31T05:28:46;99131.88;;;8.53;100.00
16544;BME280;8384;47.996;7.786;2022-10-31T05:31:12;99152.94;;;8.69;100.00
16544;BME280;8384;47.996;7.786;2022-10-31T05:33:37;99129.28;;;8.58;100.00
16544;BME280;8384;47.996;7.786;2022-10-31T05:36:02;99142.66;;;8.60;100.00
16544;BME280;8384;47.996;7.786;2022-10-31T05:38:28;99114.09;;;8.38;100.00
16544;BME280;8384;47.996;7.786;2022-10-31T05:40:56;99146.91;;;8.55;100.00
16544;BME280;8384;47.996;7.786;2022-10-31T05:43:28;99133.28;;;8.44;100.00
16544;BME280;8384;47.996;7.786;2022-10-31T05:45:54;99128.88;;;8.43;100.00
16544;BME280;8384;47.996;7.786;2022-10-31T05:48:19;99134.72;;;8.58;100.00
16544;BME280;8384;47.996;7.786;2022-10-31T05:50:47;99137.53;;;8.63;100.00
16544;BME280;8384;47.996;7.786;2022-10-31T05:53:12;99138.53;;;8.57;100.00
16544;BME280;8384;47.996;7.786;2022-10-31T05:55:38;99136.03;;;8.55;100.00
16544;BME280;8384;47.996;7.786;2022-10-31T05:58:04;99104.63;;;8.41;100.00
16544;BME280;8384;47.996;7.786;2022-10-31T06:00:29;99111.72;;;8.42;100.00
16544;BME280;8384;47.996;7.786;2022-10-31T06:03:01;99118.75;;;8.50;100.00
16544;BME280;8384;47.996;7.786;2022-10-31T06:05:28;99112.34;;;8.56;100.00
16544;BME280;8384;47.996;7.786;2022-10-31T06:07:53;99137.66;;;8.68;100.00
16544;BME280;8384;47.996;7.786;2022-10-31T06:10:18;99107.38;;;8.53;100.00
16544;BME280;8384;47.996;7.786;2022-10-31T06:12:46;99106.75;;;8.63;100.00
16544;BME280;8384;47.996;7.786;2022-10-31T06:15:11;99131.72;;;8.83;100.00
16544;BME280;8384;47.996;7.786;2022-10-31T06:17:36;99129.91;;;8.89;100.00
16544;BME280;8384;47.996;7.786;2022-10-31T06:20:03;99124.13;;;8.85;100.00
16544;BME280;8384;47.996;7.786;2022-10-31T06:22:29;99099.38;;;8.75;100.00
16544;BME280;8384;47.996;7.786;2022-10-31T06:24:54;99093.84;;;8.70;100.00
16544;BME280;8384;47.996;7.786;2022-10-31T06:27:19;99110.88;;;8.77;100.00
16544;BME280;8384;47.996;7.786;2022-10-31T06:29:45;99137.03;;;8.90;100.00
16544;BME280;8384;47.996;7.786;2022-10-31T06:32:11;99125.31;;;8.90;100.00
16544;BME280;8384;47.996;7.786;2022-10-31T06:34:37;99135.25;;;8.96;100.00
16544;BME280;8384;47.996;7.786;2022-10-31T06:37:02;99135.34;;;9.01;100.00
16544;BME280;8384;47.996;7.786;2022-10-31T06:39:27;99125.00;;;9.03;100.00
16544;BME280;8384;47.996;7.786;2022-10-31T06:41:53;99127.97;;;9.13;100.00
16544;BME280;8384;47.996;7.786;2022-10-31T06:44:18;99123.84;;;9.11;100.00
16544;BME280;8384;47.996;7.786;2022-10-31T06:46:46;99110.31;;;9.04;100.00
16544;BME280;8384;47.996;7.786;2022-10-31T06:49:11;99103.09;;;9.10;100.00
16544;BME280;8384;47.996;7.786;2022-10-31T06:51:36;99103.38;;;9.25;100.00
16544;BME280;8384;47.996;7.786;2022-10-31T06:54:01;99106.28;;;9.36;100.00
16544;BME280;8384;47.996;7.786;2022-10-31T06:56:27;99096.94;;;9.32;100.00
16544;BME280;8384;47.996;7.786;2022-10-31T06:58:52;99123.72;;;9.64;100.00
16544;BME280;8384;47.996;7.786;2022-10-31T07:01:17;99130.41;;;9.73;100.00
16544;BME280;8384;47.996;7.786;2022-10-31T07:03:42;99141.22;;;9.68;100.00
16544;BME280;8384;47.996;7.786;2022-10-31T07:06:08;99135.06;;;9.72;100.00
16544;BME280;8384;47.996;7.786;2022-10-31T07:08:33;99126.28;;;9.70;100.00
16544;BME280;8384;47.996;7.786;2022-10-31T07:10:58;99145.41;;;9.87;100.00
16544;BME280;8384;47.996;7.786;2022-10-31T07:13:24;99099.22;;;9.69;100.00
16544;BME280;8384;47.996;7.786;2022-10-31T07:15:54;99136.66;;;10.19;100.00
16544;BME280;8384;47.996;7.786;2022-10-31T07:18:20;99147.56;;;10.36;100.00
16544;BME280;8384;47.996;7.786;2022-10-31T07:20:46;99152.97;;;10.31;100.00
16544;BME280;8384;47.996;7.786;2022-10-31T07:23:12;99141.78;;;10.33;100.00
16544;BME280;8384;47.996;7.786;2022-10-31T07:25:41;99157.56;;;10.65;100.00
16544;BME280;8384;47.996;7.786;2022-10-31T07:28:07;99135.00;;;10.75;100.00
16544;BME280;8384;47.996;7.786;2022-10-31T07:30:32;99173.19;;;10.87;100.00
16544;BME280;8384;47.996;7.786;2022-10-31T07:32:57;99168.06;;;10.73;100.00
16544;BME280;8384;47.996;7.786;2022-10-31T07:35:25;99149.44;;;10.70;100.00
16544;BME280;8384;47.996;7.786;2022-10-31T07:37:50;99169.50;;;10.98;100.00
16544;BME280;8384;47.996;7.786;2022-10-31T07:40:16;99168.16;;;11.01;100.00
16544;BME280;8384;47.996;7.786;2022-10-31T07:42:43;99173.44;;;11.07;100.00
16544;BME280;8384;47.996;7.786;2022-10-31T07:45:11;99177.13;;;11.18;100.00
16544;BME280;8384;47.996;7.786;2022-10-31T07:47:40;99172.16;;;11.37;100.00
16544;BME280;8384;47.996;7.786;2022-10-31T07:50:06;99176.16;;;11.52;100.00
16544;BME280;8384;47.996;7.786;2022-10-31T07:52:32;99179.50;;;11.59;100.00
16544;BME280;8384;47.996;7.786;2022-10-31T07:54:57;99173.00;;;11.65;100.00
16544;BME280;8384;47.996;7.786;2022-10-31T07:57:22;99179.25;;;11.88;100.00
16544;BME280;8384;47.996;7.786;2022-10-31T07:59:48;99161.75;;;11.89;100.00
16544;BME280;8384;47.996;7.786;2022-10-31T08:02:13;99155.88;;;12.03;100.00
16544;BME280;8384;47.996;7.786;2022-10-31T08:04:38;99171.41;;;12.24;100.00
16544;BME280;8384;47.996;7.786;2022-10-31T08:07:04;99184.16;;;12.46;100.00
16544;BME280;8384;47.996;7.786;2022-10-31T08:09:29;99155.91;;;12.40;100.00
16544;BME280;8384;47.996;7.786;2022-10-31T08:11:54;99183.50;;;12.71;99.53
16544;BME280;8384;47.996;7.786;2022-10-31T08:14:20;99149.41;;;12.57;97.95
16544;BME280;8384;47.996;7.786;2022-10-31T08:16:45;99145.94;;;12.72;96.10
16544;BME280;8384;47.996;7.786;2022-10-31T08:19:11;99177.13;;;13.09;94.60
16544;BME280;8384;47.996;7.786;2022-10-31T08:21:36;99179.06;;;13.08;91.90
16544;BME280;8384;47.996;7.786;2022-10-31T08:24:01;99132.94;;;13.05;89.88
16544;BME280;8384;47.996;7.786;2022-10-31T08:26:27;99182.50;;;13.41;89.78
16544;BME280;8384;47.996;7.786;2022-10-31T08:28:52;99164.38;;;13.45;88.47
16544;BME280;8384;47.996;7.786;2022-10-31T08:31:19;99158.03;;;13.40;88.83
16544;BME280;8384;47.996;7.786;2022-10-31T08:33:45;99168.53;;;13.48;88.77
16544;BME280;8384;47.996;7.786;2022-10-31T08:36:10;99158.66;;;13.62;87.58
16544;BME280;8384;47.996;7.786;2022-10-31T08:38:35;99168.56;;;13.69;87.39
16544;BME280;8384;47.996;7.786;2022-10-31T08:41:01;99154.84;;;13.84;86.05
16544;BME280;8384;47.996;7.786;2022-10-31T08:43:26;99169.44;;;13.95;86.70
16544;BME280;8384;47.996;7.786;2022-10-31T08:45:51;99136.72;;;13.93;90.34
16544;BME280;8384;47.996;7.786;2022-10-31T08:48:19;99140.88;;;14.06;89.12
16544;BME280;8384;47.996;7.786;2022-10-31T08:50:45;99155.72;;;14.16;88.93
16544;BME280;8384;47.996;7.786;2022-10-31T08:53:16;99137.03;;;14.13;88.50
16544;BME280;8384;47.996;7.786;2022-10-31T08:55:42;99142.53;;;14.13;89.47
16544;BME280;8384;47.996;7.786;2022-10-31T08:58:13;99142.22;;;14.04;90.30
16544;BME280;8384;47.996;7.786;2022-10-31T09:00:39;99132.34;;;13.98;91.61
16544;BME280;8384;47.996;7.786;2022-10-31T09:03:08;99113.94;;;14.14;90.50
16544;BME280;8384;47.996;7.786;2022-10-31T09:05:34;99142.22;;;14.40;90.17
16544;BME280;8384;47.996;7.786;2022-10-31T09:08:01;99134.22;;;14.44;89.71
16544;BME280;8384;47.996;7.786;2022-10-31T09:10:28;99102.84;;;14.50;86.23
16544;BME280;8384;47.996;7.786;2022-10-31T09:12:55;99110.53;;;14.63;84.83
16544;BME280;8384;47.996;7.786;2022-10-31T09:15:21;99108.03;;;14.82;79.41
16544;BME280;8384;47.996;7.786;2022-10-31T09:17:49;99101.91;;;15.01;77.43
16544;BME280;8384;47.996;7.786;2022-10-31T09:20:15;99122.75;;;15.12;77.31
16544;BME280;8384;47.996;7.786;2022-10-31T09:22:40;99105.19;;;15.08;76.35
16544;BME280;8384;47.996;7.786;2022-10-31T09:25:06;99111.16;;;15.21;76.59
16544;BME280;8384;47.996;7.786;2022-10-31T09:27:31;99106.13;;;15.38;75.62
16544;BME280;8384;47.996;7.786;2022-10-31T09:29:57;99112.41;;;15.49;75.51
16544;BME280;8384;47.996;7.786;2022-10-31T09:32:22;99111.34;;;15.40;75.54
16544;BME280;8384;47.996;7.786;2022-10-31T09:34:47;99116.44;;;15.12;77.07
16544;BME280;8384;47.996;7.786;2022-10-31T09:37:13;99127.22;;;15.03;79.72
16544;BME280;8384;47.996;7.786;2022-10-31T09:39:38;99126.47;;;14.82;78.64
16544;BME280;8384;47.996;7.786;2022-10-31T09:45:07;99117.16;;;14.57;85.47
16544;BME280;8384;47.996;7.786;2022-10-31T09:47:39;99123.19;;;14.64;85.72
16544;BME280;8384;47.996;7.786;2022-10-31T09:50:34;99117.72;;;14.54;84.88
16544;BME280;8384;47.996;7.786;2022-10-31T09:53:10;99125.41;;;14.62;84.03
16544;BME280;8384;47.996;7.786;2022-10-31T09:55:42;99118.81;;;14.68;84.35
16544;BME280;8384;47.996;7.786;2022-10-31T09:58:19;99123.44;;;14.68;84.76
16544;BME280;8384;47.996;7.786;2022-10-31T10:00:47;99089.06;;;14.70;84.79
16544;BME280;8384;47.996;7.786;2022-10-31T10:03:35;99118.69;;;15.05;83.20
16544;BME280;8384;47.996;7.786;2022-10-31T10:06:11;99118.31;;;15.22;81.27
16544;BME280;8384;47.996;7.786;2022-10-31T10:08:38;99116.84;;;15.45;79.34
16544;BME280;8384;47.996;7.786;2022-10-31T10:13:54;99120.00;;;15.18;78.57
16544;BME280;8384;47.996;7.786;2022-10-31T10:19:33;99108.41;;;15.21;76.27
16544;BME280;8384;47.996;7.786;2022-10-31T10:22:12;99111.88;;;15.47;75.25
16544;BME280;8384;47.996;7.786;2022-10-31T10:27:58;99109.72;;;15.79;74.60
16544;BME280;8384;47.996;7.786;2022-10-31T10:33:15;99105.13;;;15.64;76.16
16544;BME280;8384;47.996;7.786;2022-10-31T10:35:47;99098.94;;;15.82;77.67
16544;BME280;8384;47.996;7.786;2022-10-31T10:38:20;99114.44;;;16.13;76.96
16544;BME280;8384;47.996;7.786;2022-10-31T10:40:47;99072.31;;;15.27;77.85
16544;BME280;8384;47.996;7.786;2022-10-31T10:43:23;99124.72;;;15.07;81.96
16544;BME280;8384;47.996;7.786;2022-10-31T10:45:54;99126.91;;;15.15;82.93
16544;BME280;8384;47.996;7.786;2022-10-31T10:48:45;99123.59;;;15.18;83.43
16544;BME280;8384;47.996;7.786;2022-10-31T10:51:22;99084.69;;;14.69;84.93
16544;BME280;8384;47.996;7.786;2022-10-31T10:54:13;99105.25;;;14.88;84.78
16544;BME280;8384;47.996;7.786;2022-10-31T10:59:21;99104.75;;;14.80;86.55
16544;BME280;8384;47.996;7.786;2022-10-31T11:01:49;99107.13;;;14.97;86.18
16544;BME280;8384;47.996;7.786;2022-10-31T11:09:24;99102.91;;;15.21;84.96
16544;BME280;8384;47.996;7.786;2022-10-31T11:11:49;99094.06;;;15.74;83.41
16544;BME280;8384;47.996;7.786;2022-10-31T11:14:16;99062.72;;;15.99;81.31
16544;BME280;8384;47.996;7.786;2022-10-31T11:16:44;99075.22;;;16.45;78.16
16544;BME280;8384;47.996;7.786;2022-10-31T11:21:42;99047.97;;;16.87;75.01
16544;BME280;8384;47.996;7.786;2022-10-31T11:26:35;99051.09;;;17.43;73.26
16544;BME280;8384;47.996;7.786;2022-10-31T11:29:03;99040.91;;;17.77;71.59
16544;BME280;8384;47.996;7.786;2022-10-31T11:31:30;99043.56;;;18.15;68.36
16544;BME280;8384;47.996;7.786;2022-10-31T11:34:00;99024.66;;;18.78;66.42
16544;BME280;8384;47.996;7.786;2022-10-31T11:36:32;99011.69;;;19.15;63.55
16544;BME280;8384;47.996;7.786;2022-10-31T11:39:00;99021.91;;;19.52;61.27
16544;BME280;8384;47.996;7.786;2022-10-31T11:41:35;99016.91;;;19.17;61.09
16544;BME280;8384;47.996;7.786;2022-10-31T11:44:04;99022.81;;;19.01;61.09
16544;BME280;8384;47.996;7.786;2022-10-31T11:46:42;99019.03;;;18.69;61.15
16544;BME280;8384;47.996;7.786;2022-10-31T11:49:41;99014.41;;;18.79;61.31
16544;BME280;8384;47.996;7.786;2022-10-31T11:57:55;98961.03;;;19.01;62.87
16544;BME280;8384;47.996;7.786;2022-10-31T12:00:22;98965.53;;;19.33;61.91
16544;BME280;8384;47.996;7.786;2022-10-31T12:02:48;98931.34;;;19.38;60.41
16544;BME280;8384;47.996;7.786;2022-10-31T12:05:23;98950.69;;;19.84;59.60
16544;BME280;8384;47.996;7.786;2022-10-31T12:07:50;98970.03;;;19.98;57.68
16544;BME280;8384;47.996;7.786;2022-10-31T12:10:16;98963.13;;;20.18;56.55
16544;BME280;8384;47.996;7.786;2022-10-31T12:16:08;98947.59;;;19.31;57.27
16544;BME280;8384;47.996;7.786;2022-10-31T12:18:50;98964.91;;;19.59;57.57
16544;BME280;8384;47.996;7.786;2022-10-31T12:21:29;98961.50;;;19.17;58.93
16544;BME280;8384;47.996;7.786;2022-10-31T12:24:07;98948.84;;;19.25;59.72
16544;BME280;8384;47.996;7.786;2022-10-31T12:33:07;98921.19;;;19.33;57.38
16544;BME280;8384;47.996;7.786;2022-10-31T12:35:53;98929.22;;;19.67;56.12
16544;BME280;8384;47.996;7.786;2022-10-31T12:41:18;98908.53;;;20.04;55.84
16544;BME280;8384;47.996;7.786;2022-10-31T12:44:01;98919.84;;;20.08;56.55
16544;BME280;8384;47.996;7.786;2022-10-31T12:49:41;98912.50;;;20.12;56.42
16544;BME280;8384;47.996;7.786;2022-10-31T12:52:14;98906.97;;;20.21;56.52
16544;BME280;8384;47.996;7.786;2022-10-31T12:55:06;98903.00;;;20.04;56.22
16544;BME280;8384;47.996;7.786;2022-10-31T12:58:01;98902.38;;;19.76;57.47
16544;BME280;8384;47.996;7.786;2022-10-31T13:00:29;98908.06;;;19.79;57.97
16544;BME280;8384;47.996;7.786;2022-10-31T13:03:04;98884.22;;;19.38;58.65
16544;BME280;8384;47.996;7.786;2022-10-31T13:05:44;98893.41;;;19.25;59.58
16544;BME280;8384;47.996;7.786;2022-10-31T13:08:20;98883.84;;;19.08;60.25
16544;BME280;8384;47.996;7.786;2022-10-31T13:10:50;98882.97;;;18.85;61.19
16544;BME280;8384;47.996;7.786;2022-10-31T13:13:33;98858.44;;;18.69;61.74
16544;BME280;8384;47.996;7.786;2022-10-31T13:16:04;98873.47;;;18.77;61.78
16544;BME280;8384;47.996;7.786;2022-10-31T13:18:52;98878.63;;;18.70;62.35
16544;BME280;8384;47.996;7.786;2022-10-31T13:21:26;98868.13;;;18.44;63.62
16544;BME280;8384;47.996;7.786;2022-10-31T13:23:52;98846.94;;;18.39;63.45
16544;BME280;8384;47.996;7.786;2022-10-31T13:26:47;98867.19;;;18.99;62.09
16544;BME280;8384;47.996;7.786;2022-10-31T13:29:27;98866.31;;;19.22;62.61
16544;BME280;8384;47.996;7.786;2022-10-31T13:31:55;98842.75;;;19.01;63.87
16544;BME280;8384;47.996;7.786;2022-10-31T13:34:33;98857.47;;;19.11;62.76
16544;BME280;8384;47.996;7.786;2022-10-31T13:37:01;98848.81;;;19.35;62.78
16544;BME280;8384;47.996;7.786;2022-10-31T13:42:21;98829.41;;;19.35;63.06
16544;BME280;8384;47.996;7.786;2022-10-31T13:44:49;98823.13;;;19.21;62.79
16544;BME280;8384;47.996;7.786;2022-10-31T13:47:28;98824.59;;;19.18;60.64
16544;BME280;8384;47.996;7.786;2022-10-31T13:52:30;98783.94;;;19.05;61.81
16544;BME280;8384;47.996;7.786;2022-10-31T13:54:55;98796.25;;;19.21;62.85
16544;BME280;8384;47.996;7.786;2022-10-31T13:57:41;98804.66;;;19.39;62.86
16544;BME280;8384;47.996;7.786;2022-10-31T14:02:48;98801.81;;;19.61;61.87
16544;BME280;8384;47.996;7.786;2022-10-31T14:05:26;98777.91;;;19.83;61.60
16544;BME280;8384;47.996;7.786;2022-10-31T14:07:53;98774.56;;;20.04;60.74
16544;BME280;8384;47.996;7.786;2022-10-31T14:10:24;98772.94;;;20.12;60.74
16544;BME280;8384;47.996;7.786;2022-10-31T14:12:51;98713.06;;;19.61;61.27
16544;BME280;8384;47.996;7.786;2022-10-31T14:15:22;98735.22;;;19.93;60.72
16544;BME280;8384;47.996;7.786;2022-10-31T14:18:00;98738.31;;;20.44;59.22
16544;BME280;8384;47.996;7.786;2022-10-31T14:20:34;98754.25;;;21.09;56.79
16544;BME280;8384;47.996;7.786;2022-10-31T14:23:39;98755.47;;;21.38;55.23
16544;BME280;8384;47.996;7.786;2022-10-31T14:28:55;98762.50;;;20.88;55.97
16544;BME280;8384;47.996;7.786;2022-10-31T14:31:41;98770.31;;;20.68;57.69
16544;BME280;8384;47.996;7.786;2022-10-31T14:34:33;98764.31;;;20.22;59.89
16544;BME280;8384;47.996;7.786;2022-10-31T14:45:20;98753.56;;;19.22;63.41